Portada
METAR-TAF:

METAR-TAF

Aeropuertos :

Aeropuerto de Rímini

Rímini, Italia

latitud: 44-02N, longitud: 012-37E, altitud: 12 m

Observación

El informe se hizo hace 11 minutos, a las 07:20 UTC
Viento 2 kt con dirección variable
Temperatura 8°C
Humedad 66%
Presión 1020 hPa
Visibilidad 10 km o más
sin nubes por debajo de 1500 m y sin presencia de cumulonimbus.

METAR: LIPR 160720Z VRB02KT CAVOK 08/02 Q1020

Hora: 09:31 (07:31 UTC)

Pronóstico

El informe se hizo hace 2 horas y 31 minutos, a las 05:00 UTC
Pronóstico válido del 16 a las 06 UTC al 16 a las 15 UTC
Viento 5 kt con dirección variable
Visibilidad 10 km o más
Cielo nuboso a una altura de 7000 ft
Evolucionando progresivamente
del 16 a las 10 UTC al 16 a las 12 UTC
Viento 10 kt del noreste

TAF: LIPR 160500Z 1606/1615 VRB05KT 9999 BKN070 BECMG 1610/1612 04010KT

Observaciones y pronósticos meteorológicos de más de 4000 aeropuertos (mensajes METAR y TAF).

Los puntos amarillos y rojos representan las estaciones disponibles.

Ponga el ratón en el punto deseado para ver el nombre de la estación.

Haga clic para ver las observaciones y los pronósticos meteorológicos.

Para cambiar el mapa : haga clic en los botones verdes con una cruz de color negro para hacer un zoom, en el botón verde con un guión para alejar o en las flechas verdes para mapas adyacentes.


METAR-TAF: